Terminal Aerodrome Forecast
Issued by NWS

Home | Current Version | Previous Version | Text Only | Print | Product List | Glossary On
Versions: 1 2 3 4 5 6 7 8 9 10 11 12 13 14 15
000
FTAK31 PANC 201135
TAFADL
TAF
PADL 201135Z 2012/2112 36006KT P6SM SCT050 OVC080
     FM201800 36012G22KT P6SM SCT060
     FM210600 34012KT P6SM SCT050 SCT120=

USA.gov is the U.S. government's official web portal to all federal, state and local government web resources and services.